sensor_id;sensor_type;location;lat;lon;timestamp;pressure;altitude;pressure_sealevel;temperature;humidity
74441;BME280;62870;54.692;25.284;2024-03-22T00:00:11;1009.3;;;26.9;19.2
74441;BME280;62870;54.692;25.284;2024-03-22T00:04:45;1009.3;;;26.9;19.2
74441;BME280;62870;54.692;25.284;2024-03-22T00:10:07;1009.2;;;26.9;19.2
74441;BME280;62870;54.692;25.284;2024-03-22T00:15:15;1009.2;;;26.9;19.2
74441;BME280;62870;54.692;25.284;2024-03-22T00:20:15;1009.1;;;26.9;19.3
74441;BME280;62870;54.692;25.284;2024-03-22T00:24:41;1009.1;;;26.9;19.3
74441;BME280;62870;54.692;25.284;2024-03-22T00:30:25;1009.1;;;26.9;19.3
74441;BME280;62870;54.692;25.284;2024-03-22T00:34:53;1009.1;;;26.9;19.3
74441;BME280;62870;54.692;25.284;2024-03-22T00:40:25;1009;;;26.9;19.2
74441;BME280;62870;54.692;25.284;2024-03-22T00:44:45;1009;;;26.9;19.2
74441;BME280;62870;54.692;25.284;2024-03-22T00:50:15;1009;;;26.9;19.3
74441;BME280;62870;54.692;25.284;2024-03-22T00:54:53;1009;;;26.9;19.3
74441;BME280;62870;54.692;25.284;2024-03-22T01:00:15;1008.9;;;26.9;19.2
74441;BME280;62870;54.692;25.284;2024-03-22T01:04:53;1008.9;;;26.9;19.2
74441;BME280;62870;54.692;25.284;2024-03-22T01:10:25;1008.7;;;26.9;19.2
74441;BME280;62870;54.692;25.284;2024-03-22T01:15:25;1008.7;;;26.9;19.2
74441;BME280;62870;54.692;25.284;2024-03-22T01:20:07;1008.7;;;26.9;19.3
74441;BME280;62870;54.692;25.284;2024-03-22T01:25:15;1008.7;;;26.8;19.3
74441;BME280;62870;54.692;25.284;2024-03-22T01:29:57;1008.7;;;26.8;19.3
74441;BME280;62870;54.692;25.284;2024-03-22T01:35:11;1008.6;;;26.9;19.2
74441;BME280;62870;54.692;25.284;2024-03-22T01:40:02;1008.6;;;26.9;19.2
74441;BME280;62870;54.692;25.284;2024-03-22T01:45:15;1008.5;;;26.9;19.2
74441;BME280;62870;54.692;25.284;2024-03-22T01:49:53;1008.5;;;26.9;19.2
74441;BME280;62870;54.692;25.284;2024-03-22T01:54:55;1008.4;;;26.9;19.3
74441;BME280;62870;54.692;25.284;2024-03-22T02:00:11;1008.3;;;26.8;19.3
74441;BME280;62870;54.692;25.284;2024-03-22T02:04:53;1008.3;;;26.8;19.3
74441;BME280;62870;54.692;25.284;2024-03-22T02:09:45;1008.3;;;26.9;19.2
74441;BME280;62870;54.692;25.284;2024-03-22T02:15:07;1008.3;;;26.9;19.2
74441;BME280;62870;54.692;25.284;2024-03-22T02:20:17;1008.2;;;26.9;19.2
74441;BME280;62870;54.692;25.284;2024-03-22T02:24:37;1008.2;;;26.9;19.2
74441;BME280;62870;54.692;25.284;2024-03-22T02:29:53;1008.2;;;26.8;19.2
74441;BME280;62870;54.692;25.284;2024-03-22T02:34:37;1008.1;;;26.8;19.2
74441;BME280;62870;54.692;25.284;2024-03-22T02:39:37;1008.1;;;26.8;19.2
74441;BME280;62870;54.692;25.284;2024-03-22T02:44:37;1008.1;;;26.8;19.2
74441;BME280;62870;54.692;25.284;2024-03-22T02:50:25;1008;;;26.8;19.1
74441;BME280;62870;54.692;25.284;2024-03-22T02:54:57;1008;;;26.8;19.1
74441;BME280;62870;54.692;25.284;2024-03-22T03:00:25;1008;;;26.8;19.2
74441;BME280;62870;54.692;25.284;2024-03-22T03:04:59;1008;;;26.8;19.2
74441;BME280;62870;54.692;25.284;2024-03-22T03:10:25;1007.9;;;26.8;19.1
74441;BME280;62870;54.692;25.284;2024-03-22T03:14:45;1007.9;;;26.8;19.1
74441;BME280;62870;54.692;25.284;2024-03-22T03:20:03;1007.8;;;26.8;19.1
74441;BME280;62870;54.692;25.284;2024-03-22T03:25:25;1007.8;;;26.7;19.1
74441;BME280;62870;54.692;25.284;2024-03-22T03:30:25;1007.8;;;26.7;19.1
74441;BME280;62870;54.692;25.284;2024-03-22T03:34:55;1007.8;;;26.7;19.1
74441;BME280;62870;54.692;25.284;2024-03-22T03:40:25;1007.8;;;26.8;19.1
74441;BME280;62870;54.692;25.284;2024-03-22T03:45:25;1007.8;;;26.8;19.1
74441;BME280;62870;54.692;25.284;2024-03-22T03:50:25;1007.7;;;26.8;19.1
74441;BME280;62870;54.692;25.284;2024-03-22T03:55:17;1007.6;;;26.7;19
74441;BME280;62870;54.692;25.284;2024-03-22T03:59:53;1007.6;;;26.7;19
74441;BME280;62870;54.692;25.284;2024-03-22T04:05:11;1007.6;;;26.7;19.1
74441;BME280;62870;54.692;25.284;2024-03-22T04:10:15;1007.6;;;26.8;19
74441;BME280;62870;54.692;25.284;2024-03-22T04:14:53;1007.6;;;26.8;19
74441;BME280;62870;54.692;25.284;2024-03-22T04:19:55;1007.6;;;26.8;19
74441;BME280;62870;54.692;25.284;2024-03-22T04:24:45;1007.6;;;26.8;19
74441;BME280;62870;54.692;25.284;2024-03-22T04:29:55;1007.5;;;26.7;19
74441;BME280;62870;54.692;25.284;2024-03-22T04:35:25;1007.6;;;26.7;19
74441;BME280;62870;54.692;25.284;2024-03-22T04:39:47;1007.6;;;26.7;19
74441;BME280;62870;54.692;25.284;2024-03-22T04:44:57;1007.6;;;26.7;18.9
74441;BME280;62870;54.692;25.284;2024-03-22T04:50:25;1007.6;;;26.8;18.9
74441;BME280;62870;54.692;25.284;2024-03-22T04:55:15;1007.6;;;26.7;18.9
74441;BME280;62870;54.692;25.284;2024-03-22T04:59:55;1007.6;;;26.7;18.9
74441;BME280;62870;54.692;25.284;2024-03-22T05:04:37;1007.6;;;26.8;18.9
74441;BME280;62870;54.692;25.284;2024-03-22T05:10:21;1007.5;;;26.8;18.9
74441;BME280;62870;54.692;25.284;2024-03-22T05:14:53;1007.5;;;26.8;18.9
74441;BME280;62870;54.692;25.284;2024-03-22T05:20:23;1007.6;;;26.8;18.8
74441;BME280;62870;54.692;25.284;2024-03-22T05:25:25;1007.6;;;26.8;18.8
74441;BME280;62870;54.692;25.284;2024-03-22T05:29:55;1007.6;;;26.8;18.8
74441;BME280;62870;54.692;25.284;2024-03-22T05:34:53;1007.5;;;26.8;18.8
74441;BME280;62870;54.692;25.284;2024-03-22T05:39:38;1007.4;;;26.8;18.8
74441;BME280;62870;54.692;25.284;2024-03-22T05:44:37;1007.4;;;26.8;18.8
74441;BME280;62870;54.692;25.284;2024-03-22T05:49:37;1007.5;;;26.9;18.8
74441;BME280;62870;54.692;25.284;2024-03-22T05:54:53;1007.5;;;26.9;18.8
74441;BME280;62870;54.692;25.284;2024-03-22T05:59:38;1007.4;;;26.9;18.8
74441;BME280;62870;54.692;25.284;2024-03-22T06:04:55;1007.5;;;26.9;18.8
74441;BME280;62870;54.692;25.284;2024-03-22T06:10:25;1007.6;;;27;18.8
74441;BME280;62870;54.692;25.284;2024-03-22T06:15:07;1007.6;;;27;18.8
74441;BME280;62870;54.692;25.284;2024-03-22T06:19:49;1007.6;;;27;18.8
74441;BME280;62870;54.692;25.284;2024-03-22T06:25:25;1007.4;;;27;18.7
74441;BME280;62870;54.692;25.284;2024-03-22T06:30:15;1007.3;;;27;18.7
74441;BME280;62870;54.692;25.284;2024-03-22T06:35:11;1007.2;;;26.9;18.7
74441;BME280;62870;54.692;25.284;2024-03-22T06:39:37;1007.2;;;26.9;18.7
74441;BME280;62870;54.692;25.284;2024-03-22T06:45:25;1007.1;;;26.9;18.7
74441;BME280;62870;54.692;25.284;2024-03-22T06:49:53;1007.1;;;26.9;18.7
74441;BME280;62870;54.692;25.284;2024-03-22T06:55:25;1006.9;;;26.9;18.7
74441;BME280;62870;54.692;25.284;2024-03-22T06:59:45;1006.9;;;26.9;18.7
74441;BME280;62870;54.692;25.284;2024-03-22T07:05:11;1006.8;;;26.8;18.7
74441;BME280;62870;54.692;25.284;2024-03-22T07:09:45;1006.8;;;26.8;18.7
74441;BME280;62870;54.692;25.284;2024-03-22T07:15:25;1006.9;;;26.8;18.7
74441;BME280;62870;54.692;25.284;2024-03-22T07:19:37;1006.9;;;26.8;18.7
74441;BME280;62870;54.692;25.284;2024-03-22T07:25:12;1006.8;;;26.8;18.7
74441;BME280;62870;54.692;25.284;2024-03-22T07:30:17;1006.7;;;26.7;18.6
74441;BME280;62870;54.692;25.284;2024-03-22T07:34:37;1006.7;;;26.7;18.6
74441;BME280;62870;54.692;25.284;2024-03-22T07:39:37;1006.6;;;26.7;18.7
74441;BME280;62870;54.692;25.284;2024-03-22T07:45:25;1006.6;;;26.6;18.7
74441;BME280;62870;54.692;25.284;2024-03-22T07:50:25;1006.6;;;26.7;18.7
74441;BME280;62870;54.692;25.284;2024-03-22T07:54:55;1006.6;;;26.7;18.7
74441;BME280;62870;54.692;25.284;2024-03-22T08:00:16;1006.8;;;26.7;18.7
74441;BME280;62870;54.692;25.284;2024-03-22T08:05:15;1006.7;;;26.7;18.7
74441;BME280;62870;54.692;25.284;2024-03-22T08:10:11;1006.7;;;26.7;18.7
74441;BME280;62870;54.692;25.284;2024-03-22T08:14:53;1006.7;;;26.7;18.7
74441;BME280;62870;54.692;25.284;2024-03-22T08:19:39;1006.7;;;26.7;18.7
74441;BME280;62870;54.692;25.284;2024-03-22T08:25:01;1006.6;;;26.7;18.7
74441;BME280;62870;54.692;25.284;2024-03-22T08:29:47;1006.7;;;26.8;18.7
74441;BME280;62870;54.692;25.284;2024-03-22T08:34:45;1006.6;;;26.8;18.7
74441;BME280;62870;54.692;25.284;2024-03-22T08:40:13;1006.6;;;26.8;18.7
74441;BME280;62870;54.692;25.284;2024-03-22T08:44:59;1006.6;;;26.8;18.7
74441;BME280;62870;54.692;25.284;2024-03-22T08:50:08;1006.5;;;26.9;18.7
74441;BME280;62870;54.692;25.284;2024-03-22T08:55:27;1006.4;;;26.9;18.7
74441;BME280;62870;54.692;25.284;2024-03-22T08:59:57;1006.4;;;26.9;18.7
74441;BME280;62870;54.692;25.284;2024-03-22T09:05:27;1006.4;;;26.8;18.8
74441;BME280;62870;54.692;25.284;2024-03-22T09:09:57;1006.4;;;26.8;18.8
74441;BME280;62870;54.692;25.284;2024-03-22T09:15:04;1006.4;;;26.8;18.8
74441;BME280;62870;54.692;25.284;2024-03-22T09:19:45;1006.3;;;26.7;18.8
74441;BME280;62870;54.692;25.284;2024-03-22T09:25:29;1006.2;;;26.8;18.8
74441;BME280;62870;54.692;25.284;2024-03-22T09:29:57;1006.2;;;26.8;18.8
74441;BME280;62870;54.692;25.284;2024-03-22T09:35:27;1006.1;;;26.8;18.9
74441;BME280;62870;54.692;25.284;2024-03-22T09:39:59;1006.1;;;26.8;18.9
74441;BME280;62870;54.692;25.284;2024-03-22T09:45:27;1006;;;26.8;18.9
74441;BME280;62870;54.692;25.284;2024-03-22T09:50:04;1006;;;26.8;18.9
74441;BME280;62870;54.692;25.284;2024-03-22T09:55:06;1005.8;;;26.8;18.9
74441;BME280;62870;54.692;25.284;2024-03-22T10:00:25;1005.8;;;26.8;18.9
74441;BME280;62870;54.692;25.284;2024-03-22T10:05:27;1005.7;;;26.8;19
74441;BME280;62870;54.692;25.284;2024-03-22T10:10:13;1005.6;;;26.8;19
74441;BME280;62870;54.692;25.284;2024-03-22T10:15:27;1005.7;;;26.8;19
74441;BME280;62870;54.692;25.284;2024-03-22T10:19:54;1005.7;;;26.8;19
74441;BME280;62870;54.692;25.284;2024-03-22T10:25:07;1005.5;;;26.9;19
74441;BME280;62870;54.692;25.284;2024-03-22T10:30:27;1005.5;;;26.9;19
74441;BME280;62870;54.692;25.284;2024-03-22T10:34:48;1005.5;;;26.9;19
74441;BME280;62870;54.692;25.284;2024-03-22T10:39:51;1005.5;;;26.8;19.1
74441;BME280;62870;54.692;25.284;2024-03-22T10:44:45;1005.5;;;26.8;19.2
74441;BME280;62870;54.692;25.284;2024-03-22T10:49:47;1005.4;;;26.8;19.2
74441;BME280;62870;54.692;25.284;2024-03-22T10:54:45;1005.3;;;26.7;19.3
74441;BME280;62870;54.692;25.284;2024-03-22T11:00:28;1005.3;;;26.7;19.2
74441;BME280;62870;54.692;25.284;2024-03-22T11:04:57;1005.3;;;26.7;19.2
74441;BME280;62870;54.692;25.284;2024-03-22T11:10:29;1005.2;;;26.6;19.5
74441;BME280;62870;54.692;25.284;2024-03-22T11:15:08;1005.1;;;26.6;19.5
74441;BME280;62870;54.692;25.284;2024-03-22T11:20:16;1005.1;;;26.6;19.5
74441;BME280;62870;54.692;25.284;2024-03-22T11:24:55;1005.1;;;26.6;19.5
74441;BME280;62870;54.692;25.284;2024-03-22T11:30:06;1004.9;;;26.6;19.4
74441;BME280;62870;54.692;25.284;2024-03-22T11:35:27;1004.8;;;26.6;19.5
74441;BME280;62870;54.692;25.284;2024-03-22T11:40:10;1004.7;;;26.6;19.6
74441;BME280;62870;54.692;25.284;2024-03-22T11:45:14;1004.6;;;26.6;19.6
74441;BME280;62870;54.692;25.284;2024-03-22T11:50:27;1004.5;;;26.6;19.6
74441;BME280;62870;54.692;25.284;2024-03-22T11:55:26;1004.5;;;26.6;19.6
74441;BME280;62870;54.692;25.284;2024-03-22T11:59:58;1004.5;;;26.6;19.6
74441;BME280;62870;54.692;25.284;2024-03-22T12:05:25;1004.4;;;26.5;19.6
74441;BME280;62870;54.692;25.284;2024-03-22T12:10:08;1004.3;;;26.5;19.7
74441;BME280;62870;54.692;25.284;2024-03-22T12:14:46;1004.3;;;26.5;19.7
74441;BME280;62870;54.692;25.284;2024-03-22T12:19:45;1004.2;;;26.4;19.8
74441;BME280;62870;54.692;25.284;2024-03-22T12:24:46;1004.2;;;26.4;19.8
74441;BME280;62870;54.692;25.284;2024-03-22T12:29:38;1004.2;;;26.4;19.7
74441;BME280;62870;54.692;25.284;2024-03-22T12:34:58;1004.2;;;26.4;19.7
74441;BME280;62870;54.692;25.284;2024-03-22T12:39:37;1004.1;;;26.5;19.7
74441;BME280;62870;54.692;25.284;2024-03-22T12:45:10;1004;;;26.3;20
74441;BME280;62870;54.692;25.284;2024-03-22T12:50:08;1004;;;26.3;20
74441;BME280;62870;54.692;25.284;2024-03-22T12:54:58;1004;;;26.3;20
74441;BME280;62870;54.692;25.284;2024-03-22T13:00:26;1003.9;;;26.4;19.9
74441;BME280;62870;54.692;25.284;2024-03-22T13:05:18;1003.9;;;26.4;19.9
74441;BME280;62870;54.692;25.284;2024-03-22T13:10:14;1003.8;;;26.4;20
74441;BME280;62870;54.692;25.284;2024-03-22T13:15:04;1003.8;;;26.4;20
74441;BME280;62870;54.692;25.284;2024-03-22T13:20:14;1003.7;;;26.3;20.2
74441;BME280;62870;54.692;25.284;2024-03-22T13:24:38;1003.7;;;26.3;20.2
74441;BME280;62870;54.692;25.284;2024-03-22T13:30:28;1003.6;;;26.4;20.1
74441;BME280;62870;54.692;25.284;2024-03-22T13:34:54;1003.6;;;26.4;20.1
74441;BME280;62870;54.692;25.284;2024-03-22T13:40:14;1003.5;;;26.3;20.3
74441;BME280;62870;54.692;25.284;2024-03-22T13:44:55;1003.5;;;26.3;20.3
74441;BME280;62870;54.692;25.284;2024-03-22T13:50:26;1003.4;;;26.2;20.6
74441;BME280;62870;54.692;25.284;2024-03-22T13:54:38;1003.4;;;26.2;20.6
74441;BME280;62870;54.692;25.284;2024-03-22T13:59:56;1003.4;;;26.2;20.6
74441;BME280;62870;54.692;25.284;2024-03-22T14:04:46;1003.4;;;26.2;20.5
74441;BME280;62870;54.692;25.284;2024-03-22T14:09:58;1003.3;;;26.3;20.4
74441;BME280;62870;54.692;25.284;2024-03-22T14:14:46;1003.2;;;26.3;20.4
74441;BME280;62870;54.692;25.284;2024-03-22T14:20:26;1003.2;;;26.3;20.8
74441;BME280;62870;54.692;25.284;2024-03-22T14:24:54;1003.2;;;26.3;20.8
74441;BME280;62870;54.692;25.284;2024-03-22T14:29:38;1003;;;26.2;20.8
74441;BME280;62870;54.692;25.284;2024-03-22T14:35:16;1002.9;;;26.3;20.6
74441;BME280;62870;54.692;25.284;2024-03-22T14:39:56;1002.9;;;26.3;20.6
74441;BME280;62870;54.692;25.284;2024-03-22T14:44:40;1002.9;;;26.3;20.6
74441;BME280;62870;54.692;25.284;2024-03-22T14:50:04;1002.8;;;26.3;20.9
74441;BME280;62870;54.692;25.284;2024-03-22T14:55:16;1002.8;;;26.2;21.1
74441;BME280;62870;54.692;25.284;2024-03-22T15:00:16;1002.8;;;26.3;20.9
74441;BME280;62870;54.692;25.284;2024-03-22T15:05:24;1002.7;;;26.3;20.8
74441;BME280;62870;54.692;25.284;2024-03-22T15:09:44;1002.7;;;26.3;20.8
74441;BME280;62870;54.692;25.284;2024-03-22T15:15:26;1002.5;;;26.3;20.9
74441;BME280;62870;54.692;25.284;2024-03-22T15:19:46;1002.5;;;26.3;20.9
74441;BME280;62870;54.692;25.284;2024-03-22T15:25:26;1002.3;;;26.2;21.1
74441;BME280;62870;54.692;25.284;2024-03-22T15:29:46;1002.3;;;26.2;21.1
74441;BME280;62870;54.692;25.284;2024-03-22T15:34:38;1002.2;;;26.2;21
74441;BME280;62870;54.692;25.284;2024-03-22T15:39:46;1002.2;;;26.3;20.9
74441;BME280;62870;54.692;25.284;2024-03-22T15:44:38;1002.2;;;26.3;20.9
74441;BME280;62870;54.692;25.284;2024-03-22T15:49:46;1002.2;;;26.3;21
74441;BME280;62870;54.692;25.284;2024-03-22T15:55:28;1002.1;;;26.2;21.2
74441;BME280;62870;54.692;25.284;2024-03-22T16:00:26;1002.1;;;26.2;21.2
74441;BME280;62870;54.692;25.284;2024-03-22T16:04:48;1002.1;;;26.2;21.2
74441;BME280;62870;54.692;25.284;2024-03-22T16:09:40;1002.1;;;26.3;21
74441;BME280;62870;54.692;25.284;2024-03-22T16:15:08;1002;;;26.2;21.2
74441;BME280;62870;54.692;25.284;2024-03-22T16:19:56;1002;;;26.2;21.2
74441;BME280;62870;54.692;25.284;2024-03-22T16:25:08;1002;;;26.1;21.4
74441;BME280;62870;54.692;25.284;2024-03-22T16:29:58;1002;;;26.1;21.4
74441;BME280;62870;54.692;25.284;2024-03-22T16:34:56;1002;;;26.2;21.2
74441;BME280;62870;54.692;25.284;2024-03-22T16:40:18;1002;;;26.2;21.1
74441;BME280;62870;54.692;25.284;2024-03-22T16:44:46;1002;;;26.2;21.1
74441;BME280;62870;54.692;25.284;2024-03-22T16:50:28;1001.9;;;26.2;21.5
74441;BME280;62870;54.692;25.284;2024-03-22T16:55:08;1001.9;;;26.1;21.5
74441;BME280;62870;54.692;25.284;2024-03-22T17:00:06;1001.9;;;26.2;21.4
74441;BME280;62870;54.692;25.284;2024-03-22T17:05:26;1001.8;;;26.2;21.3
74441;BME280;62870;54.692;25.284;2024-03-22T17:09:46;1001.8;;;26.2;21.3
74441;BME280;62870;54.692;25.284;2024-03-22T17:14:38;1001.7;;;26.3;21.3
74441;BME280;62870;54.692;25.284;2024-03-22T17:19:38;1001.6;;;26.3;21.4
74441;BME280;62870;54.692;25.284;2024-03-22T17:24:56;1001.5;;;26.2;21.5
74441;BME280;62870;54.692;25.284;2024-03-22T17:29:58;1001.4;;;26.2;21.6
74441;BME280;62870;54.692;25.284;2024-03-22T17:35:26;1001.3;;;26.2;21.4
74441;BME280;62870;54.692;25.284;2024-03-22T17:39:56;1001.3;;;26.2;21.4
74441;BME280;62870;54.692;25.284;2024-03-22T17:45:26;1001.2;;;26.2;21.5
74441;BME280;62870;54.692;25.284;2024-03-22T17:50:06;1001.1;;;26.2;21.8
74441;BME280;62870;54.692;25.284;2024-03-22T17:55:19;1000.9;;;26.1;21.9
74441;BME280;62870;54.692;25.284;2024-03-22T17:59:46;1000.9;;;26.1;21.9
74441;BME280;62870;54.692;25.284;2024-03-22T18:05:18;1001;;;26.1;21.7
74441;BME280;62870;54.692;25.284;2024-03-22T18:10:22;1001;;;26.2;21.6
74441;BME280;62870;54.692;25.284;2024-03-22T18:15:22;1001.1;;;26.2;21.7
74441;BME280;62870;54.692;25.284;2024-03-22T18:20:28;1001.1;;;26.1;21.9
74441;BME280;62870;54.692;25.284;2024-03-22T18:25:28;1001.1;;;26.1;22
74441;BME280;62870;54.692;25.284;2024-03-22T18:30:28;1001;;;26.1;21.9
74441;BME280;62870;54.692;25.284;2024-03-22T18:35:08;1001;;;26.2;21.8
74441;BME280;62870;54.692;25.284;2024-03-22T18:40:28;1000.9;;;26.2;21.8
74441;BME280;62870;54.692;25.284;2024-03-22T18:44:46;1000.9;;;26.2;21.8
74441;BME280;62870;54.692;25.284;2024-03-22T18:50:04;1000.9;;;26.2;21.7
74441;BME280;62870;54.692;25.284;2024-03-22T18:54:58;1000.8;;;26.1;21.9
74441;BME280;62870;54.692;25.284;2024-03-22T18:59:46;1000.7;;;26.1;22
74441;BME280;62870;54.692;25.284;2024-03-22T19:04:38;1000.6;;;26.1;22
74441;BME280;62870;54.692;25.284;2024-03-22T19:09:38;1000.6;;;26.2;21.9
74441;BME280;62870;54.692;25.284;2024-03-22T19:15:06;1000.5;;;26.2;21.7
74441;BME280;62870;54.692;25.284;2024-03-22T19:20:28;1000.5;;;26.2;21.8
74441;BME280;62870;54.692;25.284;2024-03-22T19:25:08;1000.4;;;26.2;22
74441;BME280;62870;54.692;25.284;2024-03-22T19:29:46;1000.4;;;26.2;22
74441;BME280;62870;54.692;25.284;2024-03-22T19:35:28;1000.1;;;26.2;21.9
74441;BME280;62870;54.692;25.284;2024-03-22T19:40:18;1000.1;;;26.2;21.8
74441;BME280;62870;54.692;25.284;2024-03-22T19:45:28;1000.1;;;26.2;21.8
74441;BME280;62870;54.692;25.284;2024-03-22T19:50:28;1000.1;;;26.2;21.8
74441;BME280;62870;54.692;25.284;2024-03-22T19:55:14;1000;;;26.2;22
74441;BME280;62870;54.692;25.284;2024-03-22T20:00:28;999.9;;;26.2;22
74441;BME280;62870;54.692;25.284;2024-03-22T20:05:28;999.7;;;26.2;22
74441;BME280;62870;54.692;25.284;2024-03-22T20:10:08;999.6;;;26.2;21.9
74441;BME280;62870;54.692;25.284;2024-03-22T20:15:28;999.6;;;26.3;21.9
74441;BME280;62870;54.692;25.284;2024-03-22T20:19:46;999.6;;;26.3;21.9
74441;BME280;62870;54.692;25.284;2024-03-22T20:24:38;999.5;;;26.3;21.9
74441;BME280;62870;54.692;25.284;2024-03-22T20:29:58;999.4;;;26.2;22
74441;BME280;62870;54.692;25.284;2024-03-22T20:34:52;999.4;;;26.2;22.1
